createdAt,value
2023-02-26T00:04:32.126Z,33.92
2023-02-26T00:09:37.049Z,32.38
2023-02-26T00:14:44.135Z,33.57
2023-02-26T00:19:49.530Z,32.71
2023-02-26T00:24:55.226Z,32.28
2023-02-26T00:30:00.810Z,32.77
2023-02-26T00:35:06.420Z,32.22
2023-02-26T00:40:18.208Z,31.96
2023-02-26T00:45:24.382Z,31.76
2023-02-26T00:50:31.343Z,31.69
2023-02-26T00:55:36.513Z,32.04
2023-02-26T01:00:43.098Z,31.68
2023-02-26T01:05:48.577Z,31.50
2023-02-26T01:10:54.891Z,31.28
2023-02-26T01:16:07.723Z,31.62
2023-02-26T01:21:21.261Z,31.06
2023-02-26T01:26:31.070Z,31.32
2023-02-26T01:31:53.019Z,31.37
2023-02-26T01:37:24.135Z,30.98
2023-02-26T01:42:33.681Z,30.53
2023-02-26T01:47:47.921Z,30.71
2023-02-26T01:52:53.025Z,30.05
2023-02-26T01:58:01.698Z,30.65
2023-02-26T02:03:07.773Z,30.05
2023-02-26T02:08:14.669Z,30.23
2023-02-26T02:13:47.859Z,29.75
2023-02-26T02:19:22.643Z,30.42
2023-02-26T02:24:55.956Z,30.62
2023-02-26T02:30:26.827Z,30.41
2023-02-26T02:35:39.310Z,30.51
2023-02-26T02:40:50.929Z,30.53
2023-02-26T02:46:06.226Z,30.20
2023-02-26T02:51:30.962Z,30.04
2023-02-26T02:56:53.136Z,30.38
2023-02-26T03:02:40.772Z,29.46
2023-02-26T03:07:56.091Z,30.03
2023-02-26T03:13:01.471Z,30.11
2023-02-26T03:18:35.622Z,29.84
2023-02-26T03:24:09.589Z,29.48
2023-02-26T03:29:29.810Z,30.31
2023-02-26T03:34:55.490Z,29.42
2023-02-26T03:40:07.095Z,29.59
2023-02-26T03:45:18.288Z,29.98
2023-02-26T03:50:48.437Z,29.97
2023-02-26T03:56:48.576Z,29.93
2023-02-26T04:02:27.024Z,30.04
2023-02-26T04:07:38.692Z,29.89
2023-02-26T04:12:45.158Z,30.05
2023-02-26T04:17:50.861Z,30.10
2023-02-26T04:22:56.457Z,29.63
2023-02-26T04:28:02.962Z,29.97
2023-02-26T04:33:09.962Z,29.98
2023-02-26T04:38:33.359Z,28.99
2023-02-26T04:43:56.619Z,29.47
2023-02-26T04:49:20.005Z,29.50
2023-02-26T04:54:43.574Z,29.48
2023-02-26T05:00:10.247Z,29.76
2023-02-26T05:05:33.700Z,28.51
2023-02-26T05:10:58.117Z,29.90
2023-02-26T05:16:21.438Z,29.59
2023-02-26T05:21:44.344Z,29.19
2023-02-26T05:27:08.128Z,29.64
2023-02-26T05:32:20.725Z,29.58
2023-02-26T05:37:26.126Z,28.21
2023-02-26T05:42:31.389Z,29.59
2023-02-26T05:47:38.106Z,29.60
2023-02-26T05:52:43.522Z,28.75
2023-02-26T05:57:49.034Z,29.67
2023-02-26T06:02:55.401Z,28.66
2023-02-26T06:08:00.712Z,29.33
2023-02-26T06:13:06.125Z,28.05
2023-02-26T06:18:11.435Z,29.66
2023-02-26T06:23:16.651Z,28.71
2023-02-26T06:28:22.691Z,28.99
2023-02-26T06:33:30.850Z,29.48
2023-02-26T06:38:38.370Z,28.58
2023-02-26T06:43:43.942Z,29.09
2023-02-26T06:48:49.299Z,29.75
2023-02-26T06:53:54.646Z,29.71
2023-02-26T06:58:59.977Z,28.96
2023-02-26T07:04:05.357Z,28.69
2023-02-26T07:09:10.858Z,29.55
2023-02-26T07:14:16.234Z,29.58
2023-02-26T07:19:21.906Z,29.83
2023-02-26T07:24:27.588Z,29.01
2023-02-26T07:29:32.428Z,29.21
2023-02-26T07:34:37.752Z,30.04
2023-02-26T07:39:43.114Z,29.98
2023-02-26T07:44:48.900Z,29.92
2023-02-26T07:49:54.509Z,29.68
2023-02-26T07:55:00.000Z,30.39
2023-02-26T08:00:08.757Z,30.88
2023-02-26T08:05:19.280Z,31.07
2023-02-26T08:10:24.859Z,30.93
2023-02-26T08:15:30.310Z,30.94
2023-02-26T08:20:37.302Z,30.73
2023-02-26T08:25:42.998Z,30.55
2023-02-26T08:30:48.473Z,30.90
2023-02-26T08:35:55.222Z,31.12
2023-02-26T08:41:01.256Z,30.36
2023-02-26T08:46:08.407Z,30.85
2023-02-26T08:51:14.869Z,31.01
2023-02-26T08:56:22.825Z,31.10
2023-02-26T09:01:29.408Z,31.12
2023-02-26T09:06:35.427Z,31.21
2023-02-26T09:11:41.113Z,30.72
2023-02-26T09:16:46.718Z,31.21
2023-02-26T09:21:52.639Z,31.31
2023-02-26T09:26:59.593Z,30.78
2023-02-26T09:32:06.825Z,30.93
2023-02-26T09:37:16.148Z,30.88
2023-02-26T09:42:37.108Z,30.88
2023-02-26T09:47:48.672Z,31.13
2023-02-26T09:53:20.532Z,31.04
2023-02-26T09:58:28.999Z,31.30
2023-02-26T10:04:03.854Z,31.48
2023-02-26T10:09:39.480Z,31.35
2023-02-26T10:15:00.695Z,31.47
2023-02-26T10:20:30.855Z,31.66
2023-02-26T10:26:14.192Z,31.34
2023-02-26T10:31:47.355Z,31.61
2023-02-26T10:37:23.407Z,31.53
2023-02-26T10:42:41.176Z,31.86
2023-02-26T10:54:03.174Z,31.94
2023-02-26T10:59:09.023Z,31.90
2023-02-26T11:04:20.908Z,32.38
2023-02-26T11:09:46.927Z,32.49
2023-02-26T11:14:53.165Z,32.72
2023-02-26T11:20:00.851Z,32.20
2023-02-26T11:25:08.069Z,32.85
2023-02-26T11:30:23.202Z,32.33
2023-02-26T11:35:29.825Z,32.54
2023-02-26T11:40:41.338Z,33.13
2023-02-26T11:45:51.798Z,32.89
2023-02-26T11:51:03.228Z,32.75
2023-02-26T11:56:15.940Z,32.52
2023-02-26T12:01:24.750Z,32.74
2023-02-26T12:06:30.589Z,33.58
2023-02-26T12:12:06.290Z,34.32
2023-02-26T12:17:14.559Z,35.92
2023-02-26T12:22:38.835Z,35.97
2023-02-26T12:28:05.100Z,35.31
2023-02-26T12:33:17.194Z,36.25
2023-02-26T12:38:27.650Z,36.92
2023-02-26T12:43:36.291Z,37.13
2023-02-26T12:49:18.715Z,37.70
2023-02-26T12:54:36.656Z,37.27
2023-02-26T12:59:51.662Z,36.15
2023-02-26T13:05:04.485Z,36.82
2023-02-26T13:10:32.864Z,36.60
2023-02-26T13:15:41.746Z,37.11
2023-02-26T13:21:13.211Z,36.82
2023-02-26T13:26:21.222Z,36.58
2023-02-26T13:31:42.164Z,36.74
2023-02-26T13:36:50.674Z,36.16
2023-02-26T13:42:15.813Z,36.50
2023-02-26T13:47:40.133Z,36.62
2023-02-26T13:52:58.058Z,36.14
2023-02-26T13:58:24.446Z,35.72
2023-02-26T14:03:30.984Z,36.42
2023-02-26T14:08:42.710Z,36.89
2023-02-26T14:14:14.336Z,36.87
2023-02-26T14:19:46.408Z,37.75
2023-02-26T14:25:19.900Z,38.22
2023-02-26T14:30:53.666Z,37.25
2023-02-26T14:36:02.096Z,37.16
2023-02-26T14:41:29.842Z,36.77
2023-02-26T14:46:38.037Z,36.20
2023-02-26T14:52:03.091Z,36.52
2023-02-26T14:57:33.863Z,37.13
2023-02-26T15:03:23.958Z,37.10
2023-02-26T15:08:38.924Z,37.64
2023-02-26T15:14:02.901Z,36.50
2023-02-26T15:19:28.787Z,38.42
2023-02-26T15:24:35.399Z,38.31
2023-02-26T15:29:47.998Z,37.02
2023-02-26T15:35:23.164Z,37.67
2023-02-26T15:40:34.920Z,37.29
2023-02-26T15:45:44.636Z,36.28
2023-02-26T15:50:58.443Z,38.19
2023-02-26T15:56:14.790Z,36.51
2023-02-26T16:01:23.377Z,37.30
2023-02-26T16:06:39.598Z,37.69
2023-02-26T16:11:48.194Z,36.96
2023-02-26T16:16:57.514Z,36.93
2023-02-26T16:22:09.554Z,36.80
2023-02-26T16:27:16.532Z,36.41
2023-02-26T16:32:22.909Z,37.50
2023-02-26T16:37:32.177Z,38.23
2023-02-26T16:43:05.280Z,37.01
2023-02-26T16:48:37.779Z,36.36
2023-02-26T16:53:49.171Z,37.64
2023-02-26T16:59:11.406Z,36.44
2023-02-26T17:04:20.262Z,36.31
2023-02-26T17:09:48.494Z,37.93
2023-02-26T17:15:04.876Z,36.79
2023-02-26T17:20:12.167Z,37.06
2023-02-26T17:25:20.437Z,36.76
2023-02-26T17:30:27.379Z,36.00
2023-02-26T17:35:34.325Z,36.53
2023-02-26T17:40:40.116Z,36.41
2023-02-26T17:45:45.886Z,36.16
2023-02-26T17:50:56.988Z,37.35
2023-02-26T17:56:02.741Z,36.96
2023-02-26T18:01:10.099Z,36.68
2023-02-26T18:06:17.922Z,36.79
2023-02-26T18:11:27.439Z,37.60
2023-02-26T18:16:39.832Z,37.98
2023-02-26T18:21:45.744Z,38.08
2023-02-26T18:26:51.720Z,37.68
2023-02-26T18:31:58.220Z,37.42
2023-02-26T18:37:06.039Z,37.27
2023-02-26T18:42:24.185Z,37.26
2023-02-26T18:47:29.794Z,37.31
2023-02-26T18:52:36.092Z,37.94
2023-02-26T18:57:44.010Z,39.16
2023-02-26T19:02:49.744Z,37.62
2023-02-26T19:07:57.213Z,37.93
2023-02-26T19:13:02.762Z,37.95
2023-02-26T19:18:08.586Z,38.84
2023-02-26T19:23:14.226Z,38.61
2023-02-26T19:28:20.417Z,38.38
2023-02-26T19:33:26.119Z,38.15
2023-02-26T19:38:31.690Z,38.17
2023-02-26T19:43:37.237Z,37.66
2023-02-26T19:48:43.613Z,38.49
2023-02-26T19:53:49.254Z,37.67
2023-02-26T19:58:54.635Z,37.47
2023-02-26T20:04:00.050Z,38.66
2023-02-26T20:09:08.527Z,38.75
2023-02-26T20:14:14.857Z,38.62
2023-02-26T20:19:20.595Z,39.28
2023-02-26T20:24:27.798Z,39.46
2023-02-26T20:29:35.251Z,38.97
2023-02-26T20:34:40.637Z,38.84
2023-02-26T20:39:45.844Z,39.03
2023-02-26T20:44:51.129Z,38.91
2023-02-26T20:49:56.438Z,38.54
2023-02-26T20:55:01.741Z,38.20
2023-02-26T21:00:12.533Z,38.41
2023-02-26T21:05:18.186Z,39.01
2023-02-26T21:10:23.537Z,40.21
2023-02-26T21:15:29.840Z,40.11
2023-02-26T21:20:35.501Z,40.12
2023-02-26T21:25:41.392Z,42.30
2023-02-26T21:30:46.794Z,40.21
2023-02-26T21:35:53.413Z,40.95
2023-02-26T21:41:00.557Z,40.53
2023-02-26T21:46:06.593Z,39.63
2023-02-26T21:51:11.965Z,39.49
2023-02-26T21:56:17.833Z,39.59
2023-02-26T22:01:22.717Z,38.77
2023-02-26T22:06:28.197Z,40.23
2023-02-26T22:11:33.524Z,40.88
2023-02-26T22:16:38.901Z,40.83
2023-02-26T22:21:44.266Z,40.84
2023-02-26T22:26:50.596Z,41.12
2023-02-26T22:31:57.991Z,40.23
2023-02-26T22:37:03.652Z,41.80
2023-02-26T22:42:12.372Z,40.60
2023-02-26T22:47:17.901Z,42.04
2023-02-26T22:52:23.140Z,41.22
2023-02-26T22:57:29.728Z,44.02
2023-02-26T23:02:35.201Z,42.36
2023-02-26T23:07:42.349Z,42.95
2023-02-26T23:12:48.519Z,43.26
2023-02-26T23:17:53.845Z,40.84
2023-02-26T23:22:59.495Z,41.73
2023-02-26T23:28:05.816Z,41.38
2023-02-26T23:33:11.652Z,44.24
2023-02-26T23:38:17.223Z,43.21
2023-02-26T23:43:22.585Z,43.99
2023-02-26T23:48:28.715Z,42.12
2023-02-26T23:53:35.489Z,42.69
2023-02-26T23:58:40.843Z,42.68
